Terminal Aerodrome Forecast
Issued by NWS Quad Cities IA IL

Home | Current Version | Previous Version | Text Only | Print | Product List | Glossary On
Versions: 1 2 3 4 5 6 7 8 9 10 11 12 13 14 15 16 17 18 19 20 21
000
FTUS43 KDVN 020520
TAFMLI
TAF
KMLI 020520Z 0206/0306 04006KT 6SM BR SCT009 OVC035
     FM020800 03005KT 6SM BR OVC025
     FM021500 05008KT P6SM SCT030 OVC050
     FM022100 04007KT P6SM VCSH BKN040
     FM030000 04003KT P6SM SCT050=

USA.gov is the U.S. government's official web portal to all federal, state and local government web resources and services.